Florence, MT (59833)

2:50 PM MDT on August 27, 2016 (GMT -0600)
Florence-Carlton Schools | | Change Station

Elev 3271 ft 46.64 °N, 114.08 °W | Updated 1 minute ago

Clear
Clear
84.8 °F
Feels Like 82 °F
N
5.0
Wind Variable Wind from South
Gusts 16.0 mph

Today
High -- | Low -- °F
--% Chance of Precip.
Yesterday
High -- | Low -- °F
Precip. -- in
Pressure 29.76 in
Visibility 10.0 miles
Clouds Clear
Heat Index 82 °F
Dew Point 41 °F
Humidity 21%
Rainfall 0.00 in
Snow Depth Not available.
6:50 AM 8:23 PM
Waning Crescent, 21% visible
METAR KMSO 271953Z 24004KT 10SM CLR 28/03 A2982 RMK AO2 SLP077 T02830028
Pressure 29.76 in
Visibility 10.0 miles
Clouds Clear
Heat Index 82 °F
Dew Point 41 °F
Humidity 21%
Rainfall 0.00 in
Snow Depth Not available.
6:50 AM 8:23 PM
Waning Crescent, 21% visible
METAR KMSO 271953Z 24004KT 10SM CLR 28/03 A2982 RMK AO2 SLP077 T02830028

10-Day Weather Forecast

Almanac

Astronomy

Aug. 27, 2016 Rise Set
Actual Time
Civil Twilight
Nautical Twilight
Astronomical Twilight
Moon
Length of Visible Light
Length of Day
Tomorrow will be .
, % of the Moon is Illuminated

Today's Extremes

State Highs State Lows

Community

WunderPhotos

Upload Photos

1,935,438 photos uploaded!

WunderBlog® & News

Nearby

Air Quality

  Air Quality AQ Index Pollutant
Not available.

Snow Depth

Station Depth Elevation

Earthquake Activity

City Distance Mag. Time & Date
Minimum magnitude displayed is 2.5.

Coastal Water Temperatures

Place Temperature

Stations

Nearby Weather Stations

Station Location Temp. Windchill Dew Point Humidity Wind Precip. Elev Updated Type
                   

Watches & Warnings

There are currently no watches in effect.